sensor_id;sensor_type;location;lat;lon;timestamp;P1;durP1;ratioP1;P2;durP2;ratioP2
10596;SDS011;5346;48.766;8.674;2022-08-26T00:00:18;7.38;;;3.92;;
10596;SDS011;5346;48.766;8.674;2022-08-26T00:02:46;4.43;;;3.83;;
10596;SDS011;5346;48.766;8.674;2022-08-26T00:05:14;5.05;;;3.70;;
10596;SDS011;5346;48.766;8.674;2022-08-26T00:07:48;6.40;;;3.78;;
10596;SDS011;5346;48.766;8.674;2022-08-26T00:10:17;3.95;;;3.65;;
10596;SDS011;5346;48.766;8.674;2022-08-26T00:12:47;3.95;;;3.58;;
10596;SDS011;5346;48.766;8.674;2022-08-26T00:15:23;3.83;;;3.47;;
10596;SDS011;5346;48.766;8.674;2022-08-26T00:17:52;5.75;;;3.22;;
10596;SDS011;5346;48.766;8.674;2022-08-26T00:20:21;3.67;;;3.38;;
10596;SDS011;5346;48.766;8.674;2022-08-26T00:22:58;4.80;;;3.80;;
10596;SDS011;5346;48.766;8.674;2022-08-26T00:25:26;3.80;;;3.50;;
10596;SDS011;5346;48.766;8.674;2022-08-26T00:27:55;3.55;;;3.25;;
10596;SDS011;5346;48.766;8.674;2022-08-26T00:30:36;4.30;;;3.38;;
10596;SDS011;5346;48.766;8.674;2022-08-26T00:33:06;5.30;;;3.58;;
10596;SDS011;5346;48.766;8.674;2022-08-26T00:35:43;3.58;;;3.28;;
10596;SDS011;5346;48.766;8.674;2022-08-26T00:38:12;4.72;;;3.53;;
10596;SDS011;5346;48.766;8.674;2022-08-26T00:40:53;5.78;;;3.60;;
10596;SDS011;5346;48.766;8.674;2022-08-26T00:43:30;3.60;;;3.03;;
10596;SDS011;5346;48.766;8.674;2022-08-26T00:46:14;4.88;;;3.30;;
10596;SDS011;5346;48.766;8.674;2022-08-26T00:51:43;4.55;;;3.38;;
10596;SDS011;5346;48.766;8.674;2022-08-26T00:54:26;3.80;;;3.40;;
10596;SDS011;5346;48.766;8.674;2022-08-26T00:57:05;4.00;;;3.58;;
10596;SDS011;5346;48.766;8.674;2022-08-26T00:59:42;4.50;;;3.53;;
10596;SDS011;5346;48.766;8.674;2022-08-26T01:02:13;3.67;;;3.38;;
10596;SDS011;5346;48.766;8.674;2022-08-26T01:04:52;4.32;;;3.70;;
10596;SDS011;5346;48.766;8.674;2022-08-26T01:07:25;3.80;;;2.85;;
10596;SDS011;5346;48.766;8.674;2022-08-26T01:10:03;4.35;;;3.78;;
10596;SDS011;5346;48.766;8.674;2022-08-26T01:12:41;3.92;;;3.63;;
10596;SDS011;5346;48.766;8.674;2022-08-26T01:15:22;5.97;;;3.78;;
10596;SDS011;5346;48.766;8.674;2022-08-26T01:17:58;5.32;;;3.80;;
10596;SDS011;5346;48.766;8.674;2022-08-26T01:20:45;5.82;;;4.05;;
10596;SDS011;5346;48.766;8.674;2022-08-26T01:23:23;4.38;;;3.67;;
10596;SDS011;5346;48.766;8.674;2022-08-26T01:26:44;3.60;;;3.30;;
10596;SDS011;5346;48.766;8.674;2022-08-26T01:29:16;5.80;;;3.63;;
10596;SDS011;5346;48.766;8.674;2022-08-26T01:31:52;3.78;;;3.20;;
10596;SDS011;5346;48.766;8.674;2022-08-26T01:34:29;8.80;;;3.50;;
10596;SDS011;5346;48.766;8.674;2022-08-26T01:37:19;4.15;;;3.75;;
10596;SDS011;5346;48.766;8.674;2022-08-26T01:39:50;3.65;;;3.35;;
10596;SDS011;5346;48.766;8.674;2022-08-26T01:42:26;4.38;;;3.97;;
10596;SDS011;5346;48.766;8.674;2022-08-26T01:47:35;4.03;;;3.72;;
10596;SDS011;5346;48.766;8.674;2022-08-26T01:50:05;4.10;;;3.70;;
10596;SDS011;5346;48.766;8.674;2022-08-26T01:52:55;4.68;;;3.65;;
10596;SDS011;5346;48.766;8.674;2022-08-26T01:55:25;3.72;;;3.42;;
10596;SDS011;5346;48.766;8.674;2022-08-26T01:58:15;4.20;;;3.72;;
10596;SDS011;5346;48.766;8.674;2022-08-26T02:00:50;4.88;;;3.70;;
10596;SDS011;5346;48.766;8.674;2022-08-26T02:03:24;4.10;;;3.70;;
10596;SDS011;5346;48.766;8.674;2022-08-26T02:05:58;8.35;;;3.53;;
10596;SDS011;5346;48.766;8.674;2022-08-26T02:08:42;8.32;;;3.80;;
10596;SDS011;5346;48.766;8.674;2022-08-26T02:11:12;4.95;;;3.53;;
10596;SDS011;5346;48.766;8.674;2022-08-26T02:13:48;7.32;;;3.53;;
10596;SDS011;5346;48.766;8.674;2022-08-26T02:16:21;4.57;;;3.92;;
10596;SDS011;5346;48.766;8.674;2022-08-26T02:18:58;4.70;;;3.50;;
10596;SDS011;5346;48.766;8.674;2022-08-26T02:21:28;3.60;;;3.30;;
10596;SDS011;5346;48.766;8.674;2022-08-26T02:24:07;3.72;;;3.38;;
10596;SDS011;5346;48.766;8.674;2022-08-26T02:26:41;4.68;;;3.45;;
10596;SDS011;5346;48.766;8.674;2022-08-26T02:29:22;3.85;;;3.40;;
10596;SDS011;5346;48.766;8.674;2022-08-26T02:31:53;3.95;;;3.60;;
10596;SDS011;5346;48.766;8.674;2022-08-26T02:34:29;5.15;;;3.78;;
10596;SDS011;5346;48.766;8.674;2022-08-26T02:36:59;4.03;;;3.70;;
10596;SDS011;5346;48.766;8.674;2022-08-26T02:39:39;4.38;;;3.47;;
10596;SDS011;5346;48.766;8.674;2022-08-26T02:42:08;6.47;;;3.53;;
10596;SDS011;5346;48.766;8.674;2022-08-26T02:44:36;5.13;;;3.63;;
10596;SDS011;5346;48.766;8.674;2022-08-26T02:47:12;4.72;;;3.47;;
10596;SDS011;5346;48.766;8.674;2022-08-26T02:49:43;6.05;;;3.50;;
10596;SDS011;5346;48.766;8.674;2022-08-26T02:52:18;3.67;;;3.35;;
10596;SDS011;5346;48.766;8.674;2022-08-26T02:54:46;3.83;;;3.40;;
10596;SDS011;5346;48.766;8.674;2022-08-26T02:57:15;3.83;;;3.20;;
10596;SDS011;5346;48.766;8.674;2022-08-26T02:59:52;4.30;;;3.30;;
10596;SDS011;5346;48.766;8.674;2022-08-26T03:02:27;5.35;;;3.58;;
10596;SDS011;5346;48.766;8.674;2022-08-26T03:05:01;4.30;;;3.72;;
10596;SDS011;5346;48.766;8.674;2022-08-26T03:07:30;4.03;;;3.20;;
10596;SDS011;5346;48.766;8.674;2022-08-26T03:09:59;5.65;;;4.03;;
10596;SDS011;5346;48.766;8.674;2022-08-26T03:12:34;4.28;;;3.72;;
10596;SDS011;5346;48.766;8.674;2022-08-26T03:15:02;6.30;;;3.72;;
10596;SDS011;5346;48.766;8.674;2022-08-26T03:17:44;3.65;;;3.35;;
10596;SDS011;5346;48.766;8.674;2022-08-26T03:20:22;6.05;;;3.60;;
10596;SDS011;5346;48.766;8.674;2022-08-26T03:22:49;3.80;;;3.40;;
10596;SDS011;5346;48.766;8.674;2022-08-26T03:25:21;4.10;;;3.35;;
10596;SDS011;5346;48.766;8.674;2022-08-26T03:27:56;4.65;;;3.47;;
10596;SDS011;5346;48.766;8.674;2022-08-26T03:30:24;3.80;;;3.25;;
10596;SDS011;5346;48.766;8.674;2022-08-26T03:33:14;3.70;;;3.40;;
10596;SDS011;5346;48.766;8.674;2022-08-26T03:35:42;4.28;;;3.90;;
10596;SDS011;5346;48.766;8.674;2022-08-26T03:38:10;6.47;;;3.88;;
10596;SDS011;5346;48.766;8.674;2022-08-26T03:40:44;4.20;;;3.50;;
10596;SDS011;5346;48.766;8.674;2022-08-26T03:43:15;3.58;;;3.28;;
10596;SDS011;5346;48.766;8.674;2022-08-26T03:45:43;3.97;;;3.53;;
10596;SDS011;5346;48.766;8.674;2022-08-26T03:48:17;3.90;;;3.55;;
10596;SDS011;5346;48.766;8.674;2022-08-26T03:50:45;3.47;;;3.17;;
10596;SDS011;5346;48.766;8.674;2022-08-26T03:53:14;5.10;;;3.47;;
10596;SDS011;5346;48.766;8.674;2022-08-26T03:55:54;7.68;;;3.88;;
10596;SDS011;5346;48.766;8.674;2022-08-26T03:58:22;4.00;;;3.40;;
10596;SDS011;5346;48.766;8.674;2022-08-26T04:00:56;4.43;;;3.50;;
10596;SDS011;5346;48.766;8.674;2022-08-26T04:03:25;3.83;;;3.45;;
10596;SDS011;5346;48.766;8.674;2022-08-26T04:06:17;6.13;;;3.53;;
10596;SDS011;5346;48.766;8.674;2022-08-26T04:08:45;5.75;;;3.45;;
10596;SDS011;5346;48.766;8.674;2022-08-26T04:11:17;4.43;;;3.83;;
10596;SDS011;5346;48.766;8.674;2022-08-26T04:13:52;4.65;;;3.33;;
10596;SDS011;5346;48.766;8.674;2022-08-26T04:16:20;3.58;;;3.28;;
10596;SDS011;5346;48.766;8.674;2022-08-26T04:18:48;3.88;;;3.42;;
10596;SDS011;5346;48.766;8.674;2022-08-26T04:21:22;5.95;;;3.70;;
10596;SDS011;5346;48.766;8.674;2022-08-26T04:23:52;4.03;;;3.63;;
10596;SDS011;5346;48.766;8.674;2022-08-26T04:26:21;5.22;;;4.00;;
10596;SDS011;5346;48.766;8.674;2022-08-26T04:28:57;4.20;;;3.65;;
10596;SDS011;5346;48.766;8.674;2022-08-26T04:31:25;3.40;;;3.10;;
10596;SDS011;5346;48.766;8.674;2022-08-26T04:33:56;4.57;;;3.50;;
10596;SDS011;5346;48.766;8.674;2022-08-26T04:36:30;5.35;;;3.55;;
10596;SDS011;5346;48.766;8.674;2022-08-26T04:38:59;3.67;;;3.38;;
10596;SDS011;5346;48.766;8.674;2022-08-26T04:41:28;4.53;;;3.55;;
10596;SDS011;5346;48.766;8.674;2022-08-26T04:44:05;3.72;;;3.25;;
10596;SDS011;5346;48.766;8.674;2022-08-26T04:46:33;6.65;;;3.53;;
10596;SDS011;5346;48.766;8.674;2022-08-26T04:49:08;3.55;;;3.25;;
10596;SDS011;5346;48.766;8.674;2022-08-26T04:51:43;4.20;;;3.33;;
10596;SDS011;5346;48.766;8.674;2022-08-26T04:54:12;4.85;;;3.17;;
10596;SDS011;5346;48.766;8.674;2022-08-26T04:56:42;4.82;;;3.78;;
10596;SDS011;5346;48.766;8.674;2022-08-26T04:59:18;3.65;;;3.30;;
10596;SDS011;5346;48.766;8.674;2022-08-26T05:01:53;3.60;;;3.30;;
10596;SDS011;5346;48.766;8.674;2022-08-26T05:04:33;3.92;;;3.28;;
10596;SDS011;5346;48.766;8.674;2022-08-26T05:07:01;4.25;;;3.67;;
10596;SDS011;5346;48.766;8.674;2022-08-26T05:09:29;5.18;;;3.30;;
10596;SDS011;5346;48.766;8.674;2022-08-26T05:12:03;4.40;;;3.42;;
10596;SDS011;5346;48.766;8.674;2022-08-26T05:14:31;3.65;;;3.20;;
10596;SDS011;5346;48.766;8.674;2022-08-26T05:16:59;3.78;;;3.10;;
10596;SDS011;5346;48.766;8.674;2022-08-26T05:19:33;3.38;;;3.08;;
10596;SDS011;5346;48.766;8.674;2022-08-26T05:22:05;7.20;;;3.45;;
10596;SDS011;5346;48.766;8.674;2022-08-26T05:24:40;3.95;;;3.33;;
10596;SDS011;5346;48.766;8.674;2022-08-26T05:27:08;4.63;;;3.53;;
10596;SDS011;5346;48.766;8.674;2022-08-26T05:29:37;3.40;;;3.10;;
10596;SDS011;5346;48.766;8.674;2022-08-26T05:32:11;2.83;;;2.58;;
10596;SDS011;5346;48.766;8.674;2022-08-26T05:34:39;3.33;;;3.03;;
10596;SDS011;5346;48.766;8.674;2022-08-26T05:37:08;3.58;;;3.28;;
10596;SDS011;5346;48.766;8.674;2022-08-26T05:39:42;3.85;;;3.00;;
10596;SDS011;5346;48.766;8.674;2022-08-26T05:42:17;3.75;;;3.45;;
10596;SDS011;5346;48.766;8.674;2022-08-26T05:44:52;5.68;;;3.20;;
10596;SDS011;5346;48.766;8.674;2022-08-26T05:47:21;3.35;;;2.90;;
10596;SDS011;5346;48.766;8.674;2022-08-26T05:49:49;3.50;;;3.10;;
10596;SDS011;5346;48.766;8.674;2022-08-26T05:52:23;4.85;;;3.10;;
10596;SDS011;5346;48.766;8.674;2022-08-26T05:54:51;5.75;;;3.58;;
10596;SDS011;5346;48.766;8.674;2022-08-26T05:57:34;3.63;;;3.25;;
10596;SDS011;5346;48.766;8.674;2022-08-26T06:00:09;3.88;;;3.17;;
10596;SDS011;5346;48.766;8.674;2022-08-26T06:02:43;3.55;;;3.20;;
10596;SDS011;5346;48.766;8.674;2022-08-26T06:05:17;4.55;;;2.92;;
10596;SDS011;5346;48.766;8.674;2022-08-26T06:07:47;3.20;;;2.90;;
10596;SDS011;5346;48.766;8.674;2022-08-26T06:10:43;3.33;;;3.03;;
10596;SDS011;5346;48.766;8.674;2022-08-26T06:13:31;3.25;;;2.90;;
10596;SDS011;5346;48.766;8.674;2022-08-26T06:16:08;3.70;;;3.40;;
10596;SDS011;5346;48.766;8.674;2022-08-26T06:18:39;4.10;;;2.80;;
10596;SDS011;5346;48.766;8.674;2022-08-26T06:21:16;4.63;;;3.25;;
10596;SDS011;5346;48.766;8.674;2022-08-26T06:23:51;3.97;;;3.67;;
10596;SDS011;5346;48.766;8.674;2022-08-26T06:26:57;3.53;;;3.22;;
10596;SDS011;5346;48.766;8.674;2022-08-26T06:29:30;3.40;;;3.10;;
10596;SDS011;5346;48.766;8.674;2022-08-26T06:32:06;3.78;;;3.03;;
10596;SDS011;5346;48.766;8.674;2022-08-26T06:34:34;9.77;;;3.15;;
10596;SDS011;5346;48.766;8.674;2022-08-26T06:37:01;5.07;;;3.33;;
10596;SDS011;5346;48.766;8.674;2022-08-26T06:39:37;3.40;;;3.10;;
10596;SDS011;5346;48.766;8.674;2022-08-26T06:42:06;2.90;;;2.70;;
10596;SDS011;5346;48.766;8.674;2022-08-26T06:44:36;4.30;;;2.90;;
10596;SDS011;5346;48.766;8.674;2022-08-26T06:47:10;3.95;;;2.88;;
10596;SDS011;5346;48.766;8.674;2022-08-26T06:49:38;4.53;;;3.13;;
10596;SDS011;5346;48.766;8.674;2022-08-26T06:52:05;3.17;;;2.90;;
10596;SDS011;5346;48.766;8.674;2022-08-26T06:54:46;3.42;;;3.13;;
10596;SDS011;5346;48.766;8.674;2022-08-26T06:57:22;5.35;;;3.03;;
10596;SDS011;5346;48.766;8.674;2022-08-26T06:59:57;6.95;;;2.95;;
10596;SDS011;5346;48.766;8.674;2022-08-26T07:02:25;3.22;;;2.92;;
10596;SDS011;5346;48.766;8.674;2022-08-26T07:04:53;3.70;;;3.40;;
10596;SDS011;5346;48.766;8.674;2022-08-26T07:07:27;3.70;;;2.80;;
10596;SDS011;5346;48.766;8.674;2022-08-26T07:09:55;3.90;;;2.92;;
10596;SDS011;5346;48.766;8.674;2022-08-26T07:12:23;3.60;;;3.30;;
10596;SDS011;5346;48.766;8.674;2022-08-26T07:14:58;4.57;;;3.00;;
10596;SDS011;5346;48.766;8.674;2022-08-26T07:17:25;4.50;;;3.22;;
10596;SDS011;5346;48.766;8.674;2022-08-26T07:19:54;5.97;;;3.75;;
10596;SDS011;5346;48.766;8.674;2022-08-26T07:22:33;3.60;;;3.28;;
10596;SDS011;5346;48.766;8.674;2022-08-26T07:25:02;4.47;;;3.78;;
10596;SDS011;5346;48.766;8.674;2022-08-26T07:27:44;6.03;;;3.50;;
10596;SDS011;5346;48.766;8.674;2022-08-26T07:30:19;4.60;;;3.83;;
10596;SDS011;5346;48.766;8.674;2022-08-26T07:32:56;4.00;;;3.58;;
10596;SDS011;5346;48.766;8.674;2022-08-26T07:35:25;6.35;;;4.07;;
10596;SDS011;5346;48.766;8.674;2022-08-26T07:37:52;4.30;;;3.90;;
10596;SDS011;5346;48.766;8.674;2022-08-26T07:40:28;5.43;;;3.42;;
10596;SDS011;5346;48.766;8.674;2022-08-26T07:42:56;5.15;;;4.15;;
10596;SDS011;5346;48.766;8.674;2022-08-26T07:45:26;4.35;;;3.95;;
10596;SDS011;5346;48.766;8.674;2022-08-26T07:48:00;3.65;;;3.35;;
10596;SDS011;5346;48.766;8.674;2022-08-26T07:50:29;6.80;;;4.00;;
10596;SDS011;5346;48.766;8.674;2022-08-26T07:53:15;4.20;;;3.80;;
10596;SDS011;5346;48.766;8.674;2022-08-26T07:55:49;3.92;;;3.60;;
10596;SDS011;5346;48.766;8.674;2022-08-26T07:58:31;7.10;;;4.00;;
10596;SDS011;5346;48.766;8.674;2022-08-26T08:01:07;7.45;;;3.55;;
10596;SDS011;5346;48.766;8.674;2022-08-26T08:03:35;6.50;;;4.40;;
10596;SDS011;5346;48.766;8.674;2022-08-26T08:06:03;5.38;;;4.35;;
10596;SDS011;5346;48.766;8.674;2022-08-26T08:08:38;6.05;;;4.32;;
10596;SDS011;5346;48.766;8.674;2022-08-26T08:11:07;7.60;;;4.45;;
10596;SDS011;5346;48.766;8.674;2022-08-26T08:13:35;5.05;;;4.38;;
10596;SDS011;5346;48.766;8.674;2022-08-26T08:16:11;6.90;;;4.78;;
10596;SDS011;5346;48.766;8.674;2022-08-26T08:18:38;5.88;;;4.85;;
10596;SDS011;5346;48.766;8.674;2022-08-26T08:21:07;5.03;;;4.53;;
10596;SDS011;5346;48.766;8.674;2022-08-26T08:23:50;5.85;;;4.88;;
10596;SDS011;5346;48.766;8.674;2022-08-26T08:26:19;8.95;;;5.50;;
10596;SDS011;5346;48.766;8.674;2022-08-26T08:28:54;5.47;;;4.55;;
10596;SDS011;5346;48.766;8.674;2022-08-26T08:31:27;8.40;;;4.60;;
10596;SDS011;5346;48.766;8.674;2022-08-26T08:34:23;6.53;;;5.13;;
10596;SDS011;5346;48.766;8.674;2022-08-26T08:36:52;4.72;;;4.30;;
10596;SDS011;5346;48.766;8.674;2022-08-26T08:39:29;8.23;;;4.90;;
10596;SDS011;5346;48.766;8.674;2022-08-26T08:44:39;5.55;;;4.70;;
10596;SDS011;5346;48.766;8.674;2022-08-26T08:47:19;11.05;;;5.03;;
10596;SDS011;5346;48.766;8.674;2022-08-26T08:50:05;6.18;;;4.50;;
10596;SDS011;5346;48.766;8.674;2022-08-26T08:52:40;10.48;;;4.30;;
10596;SDS011;5346;48.766;8.674;2022-08-26T08:55:20;4.93;;;4.43;;
10596;SDS011;5346;48.766;8.674;2022-08-26T08:58:02;5.63;;;5.13;;
10596;SDS011;5346;48.766;8.674;2022-08-26T09:00:53;8.13;;;4.50;;
10596;SDS011;5346;48.766;8.674;2022-08-26T09:06:16;8.50;;;4.70;;
10596;SDS011;5346;48.766;8.674;2022-08-26T09:08:46;5.95;;;4.95;;
10596;SDS011;5346;48.766;8.674;2022-08-26T09:11:16;5.53;;;5.05;;
10596;SDS011;5346;48.766;8.674;2022-08-26T09:13:53;5.43;;;4.88;;
10596;SDS011;5346;48.766;8.674;2022-08-26T09:19:08;9.13;;;4.75;;
10596;SDS011;5346;48.766;8.674;2022-08-26T09:22:01;6.10;;;5.50;;
10596;SDS011;5346;48.766;8.674;2022-08-26T09:24:37;6.03;;;4.70;;
10596;SDS011;5346;48.766;8.674;2022-08-26T09:27:34;10.40;;;5.22;;
10596;SDS011;5346;48.766;8.674;2022-08-26T09:30:22;6.47;;;4.65;;
10596;SDS011;5346;48.766;8.674;2022-08-26T09:33:00;8.00;;;4.57;;
10596;SDS011;5346;48.766;8.674;2022-08-26T09:35:43;8.05;;;5.60;;
10596;SDS011;5346;48.766;8.674;2022-08-26T09:38:29;6.22;;;4.82;;
10596;SDS011;5346;48.766;8.674;2022-08-26T09:41:18;6.35;;;5.10;;
10596;SDS011;5346;48.766;8.674;2022-08-26T09:46:52;8.48;;;5.50;;
10596;SDS011;5346;48.766;8.674;2022-08-26T09:49:34;8.65;;;5.50;;
10596;SDS011;5346;48.766;8.674;2022-08-26T09:52:16;9.75;;;5.90;;
10596;SDS011;5346;48.766;8.674;2022-08-26T09:58:01;6.90;;;5.60;;
10596;SDS011;5346;48.766;8.674;2022-08-26T10:00:35;7.80;;;5.38;;
10596;SDS011;5346;48.766;8.674;2022-08-26T10:03:13;9.68;;;5.43;;
10596;SDS011;5346;48.766;8.674;2022-08-26T10:05:58;8.73;;;5.40;;
10596;SDS011;5346;48.766;8.674;2022-08-26T10:08:54;6.82;;;4.72;;
10596;SDS011;5346;48.766;8.674;2022-08-26T10:11:38;13.10;;;5.50;;
10596;SDS011;5346;48.766;8.674;2022-08-26T10:17:33;8.20;;;5.20;;
10596;SDS011;5346;48.766;8.674;2022-08-26T10:20:35;8.20;;;5.38;;
10596;SDS011;5346;48.766;8.674;2022-08-26T10:23:11;9.45;;;5.65;;
10596;SDS011;5346;48.766;8.674;2022-08-26T10:25:52;11.43;;;5.40;;
10596;SDS011;5346;48.766;8.674;2022-08-26T10:28:51;11.23;;;5.53;;
10596;SDS011;5346;48.766;8.674;2022-08-26T10:32:06;9.13;;;5.70;;
10596;SDS011;5346;48.766;8.674;2022-08-26T10:34:41;8.25;;;5.53;;
10596;SDS011;5346;48.766;8.674;2022-08-26T10:37:18;10.25;;;5.90;;
10596;SDS011;5346;48.766;8.674;2022-08-26T10:39:53;10.77;;;4.80;;
10596;SDS011;5346;48.766;8.674;2022-08-26T10:42:36;5.63;;;4.85;;
10596;SDS011;5346;48.766;8.674;2022-08-26T10:45:12;17.10;;;5.60;;
10596;SDS011;5346;48.766;8.674;2022-08-26T10:50:31;10.25;;;5.70;;
10596;SDS011;5346;48.766;8.674;2022-08-26T10:53:15;9.63;;;5.57;;
10596;SDS011;5346;48.766;8.674;2022-08-26T10:59:21;8.18;;;5.47;;
10596;SDS011;5346;48.766;8.674;2022-08-26T11:05:04;9.88;;;5.57;;
10596;SDS011;5346;48.766;8.674;2022-08-26T11:07:48;10.32;;;5.63;;
10596;SDS011;5346;48.766;8.674;2022-08-26T11:16:38;11.95;;;5.15;;
10596;SDS011;5346;48.766;8.674;2022-08-26T11:22:31;10.85;;;5.60;;
10596;SDS011;5346;48.766;8.674;2022-08-26T11:25:23;10.32;;;5.40;;
10596;SDS011;5346;48.766;8.674;2022-08-26T11:27:58;9.35;;;5.32;;
10596;SDS011;5346;48.766;8.674;2022-08-26T11:30:37;17.40;;;5.60;;
10596;SDS011;5346;48.766;8.674;2022-08-26T11:36:10;8.57;;;5.28;;
10596;SDS011;5346;48.766;8.674;2022-08-26T11:39:25;8.00;;;5.20;;
10596;SDS011;5346;48.766;8.674;2022-08-26T11:42:02;10.35;;;5.15;;
10596;SDS011;5346;48.766;8.674;2022-08-26T11:44:57;12.48;;;5.38;;
10596;SDS011;5346;48.766;8.674;2022-08-26T11:47:31;13.05;;;5.40;;
10596;SDS011;5346;48.766;8.674;2022-08-26T11:50:22;9.70;;;5.57;;
10596;SDS011;5346;48.766;8.674;2022-08-26T11:52:57;5.95;;;5.25;;
10596;SDS011;5346;48.766;8.674;2022-08-26T11:55:40;10.07;;;5.40;;
10596;SDS011;5346;48.766;8.674;2022-08-26T11:58:19;5.80;;;4.90;;
10596;SDS011;5346;48.766;8.674;2022-08-26T12:00:57;8.02;;;4.75;;
10596;SDS011;5346;48.766;8.674;2022-08-26T12:09:11;6.80;;;4.70;;
10596;SDS011;5346;48.766;8.674;2022-08-26T12:12:10;6.53;;;4.85;;
10596;SDS011;5346;48.766;8.674;2022-08-26T12:14:39;10.63;;;5.15;;
10596;SDS011;5346;48.766;8.674;2022-08-26T12:17:18;5.38;;;4.63;;
10596;SDS011;5346;48.766;8.674;2022-08-26T12:19:52;5.25;;;4.80;;
10596;SDS011;5346;48.766;8.674;2022-08-26T12:22:33;6.57;;;4.40;;
10596;SDS011;5346;48.766;8.674;2022-08-26T12:25:03;4.88;;;4.40;;
10596;SDS011;5346;48.766;8.674;2022-08-26T12:27:42;8.18;;;4.50;;
10596;SDS011;5346;48.766;8.674;2022-08-26T12:30:22;7.63;;;4.90;;
10596;SDS011;5346;48.766;8.674;2022-08-26T12:33:04;5.40;;;4.90;;
10596;SDS011;5346;48.766;8.674;2022-08-26T12:35:48;6.30;;;4.50;;
10596;SDS011;5346;48.766;8.674;2022-08-26T12:38:23;4.97;;;4.50;;
10596;SDS011;5346;48.766;8.674;2022-08-26T12:40:52;5.40;;;4.50;;
10596;SDS011;5346;48.766;8.674;2022-08-26T12:43:42;6.22;;;5.00;;
10596;SDS011;5346;48.766;8.674;2022-08-26T12:46:21;7.93;;;4.95;;
10596;SDS011;5346;48.766;8.674;2022-08-26T12:48:52;6.47;;;4.40;;
10596;SDS011;5346;48.766;8.674;2022-08-26T12:51:28;10.13;;;4.85;;
10596;SDS011;5346;48.766;8.674;2022-08-26T12:53:57;5.10;;;4.18;;
10596;SDS011;5346;48.766;8.674;2022-08-26T12:59:25;5.10;;;4.40;;
10596;SDS011;5346;48.766;8.674;2022-08-26T13:01:58;5.55;;;3.85;;
10596;SDS011;5346;48.766;8.674;2022-08-26T13:04:34;6.45;;;4.05;;
10596;SDS011;5346;48.766;8.674;2022-08-26T13:07:38;8.98;;;3.90;;
10596;SDS011;5346;48.766;8.674;2022-08-26T13:10:04;5.18;;;4.15;;
10596;SDS011;5346;48.766;8.674;2022-08-26T13:12:33;5.55;;;3.83;;
10596;SDS011;5346;48.766;8.674;2022-08-26T13:15:03;4.72;;;3.92;;
10596;SDS011;5346;48.766;8.674;2022-08-26T13:17:37;4.82;;;4.30;;
10596;SDS011;5346;48.766;8.674;2022-08-26T13:20:05;5.07;;;3.95;;
10596;SDS011;5346;48.766;8.674;2022-08-26T13:22:33;6.60;;;3.53;;
10596;SDS011;5346;48.766;8.674;2022-08-26T13:25:26;5.10;;;4.40;;
10596;SDS011;5346;48.766;8.674;2022-08-26T13:27:54;8.10;;;4.07;;
10596;SDS011;5346;48.766;8.674;2022-08-26T13:30:28;7.32;;;3.90;;
10596;SDS011;5346;48.766;8.674;2022-08-26T13:32:56;5.07;;;3.97;;
10596;SDS011;5346;48.766;8.674;2022-08-26T13:35:27;6.53;;;4.85;;
10596;SDS011;5346;48.766;8.674;2022-08-26T13:38:01;4.65;;;3.90;;
10596;SDS011;5346;48.766;8.674;2022-08-26T13:40:32;4.80;;;4.40;;
10596;SDS011;5346;48.766;8.674;2022-08-26T13:43:00;7.45;;;5.20;;
10596;SDS011;5346;48.766;8.674;2022-08-26T13:45:33;5.18;;;4.30;;
10596;SDS011;5346;48.766;8.674;2022-08-26T13:48:02;4.88;;;4.07;;
10596;SDS011;5346;48.766;8.674;2022-08-26T13:50:31;5.38;;;4.18;;
10596;SDS011;5346;48.766;8.674;2022-08-26T13:53:06;8.75;;;3.97;;
10596;SDS011;5346;48.766;8.674;2022-08-26T13:55:34;8.30;;;4.25;;
10596;SDS011;5346;48.766;8.674;2022-08-26T13:58:02;6.00;;;4.57;;
10596;SDS011;5346;48.766;8.674;2022-08-26T14:00:36;4.18;;;3.78;;
10596;SDS011;5346;48.766;8.674;2022-08-26T14:03:05;5.03;;;4.20;;
10596;SDS011;5346;48.766;8.674;2022-08-26T14:05:38;5.95;;;4.18;;
10596;SDS011;5346;48.766;8.674;2022-08-26T14:08:12;4.85;;;4.30;;
10596;SDS011;5346;48.766;8.674;2022-08-26T14:10:40;4.90;;;4.50;;
10596;SDS011;5346;48.766;8.674;2022-08-26T14:13:10;6.32;;;4.50;;
10596;SDS011;5346;48.766;8.674;2022-08-26T14:15:47;4.72;;;4.32;;
10596;SDS011;5346;48.766;8.674;2022-08-26T14:18:19;6.10;;;4.25;;
10596;SDS011;5346;48.766;8.674;2022-08-26T14:21:05;7.45;;;4.80;;
10596;SDS011;5346;48.766;8.674;2022-08-26T14:23:33;5.30;;;4.80;;
10596;SDS011;5346;48.766;8.674;2022-08-26T14:26:10;7.28;;;4.70;;
10596;SDS011;5346;48.766;8.674;2022-08-26T14:28:55;5.22;;;4.72;;
10596;SDS011;5346;48.766;8.674;2022-08-26T14:31:30;5.70;;;4.40;;
10596;SDS011;5346;48.766;8.674;2022-08-26T14:34:01;5.90;;;4.50;;
10596;SDS011;5346;48.766;8.674;2022-08-26T14:36:37;6.90;;;4.80;;
10596;SDS011;5346;48.766;8.674;2022-08-26T14:39:09;6.30;;;3.90;;
10596;SDS011;5346;48.766;8.674;2022-08-26T14:41:45;5.97;;;4.15;;
10596;SDS011;5346;48.766;8.674;2022-08-26T14:44:20;5.35;;;3.90;;
10596;SDS011;5346;48.766;8.674;2022-08-26T14:47:01;5.20;;;4.25;;
10596;SDS011;5346;48.766;8.674;2022-08-26T14:49:31;8.13;;;4.13;;
10596;SDS011;5346;48.766;8.674;2022-08-26T14:51:59;7.65;;;4.05;;
10596;SDS011;5346;48.766;8.674;2022-08-26T14:54:32;6.95;;;4.38;;
10596;SDS011;5346;48.766;8.674;2022-08-26T14:57:08;6.13;;;4.57;;
10596;SDS011;5346;48.766;8.674;2022-08-26T14:59:45;4.75;;;4.15;;
10596;SDS011;5346;48.766;8.674;2022-08-26T15:02:15;6.70;;;4.22;;
10596;SDS011;5346;48.766;8.674;2022-08-26T15:04:58;7.70;;;4.40;;
10596;SDS011;5346;48.766;8.674;2022-08-26T15:07:36;5.07;;;3.92;;
10596;SDS011;5346;48.766;8.674;2022-08-26T15:10:06;5.30;;;4.40;;
10596;SDS011;5346;48.766;8.674;2022-08-26T15:12:44;5.38;;;4.60;;
10596;SDS011;5346;48.766;8.674;2022-08-26T15:15:13;5.28;;;4.78;;
10596;SDS011;5346;48.766;8.674;2022-08-26T15:17:43;4.68;;;4.18;;
10596;SDS011;5346;48.766;8.674;2022-08-26T15:20:18;6.13;;;4.40;;
10596;SDS011;5346;48.766;8.674;2022-08-26T15:22:46;12.82;;;4.40;;
10596;SDS011;5346;48.766;8.674;2022-08-26T15:25:16;7.35;;;4.05;;
10596;SDS011;5346;48.766;8.674;2022-08-26T15:27:51;8.77;;;4.45;;
10596;SDS011;5346;48.766;8.674;2022-08-26T15:30:18;5.63;;;4.95;;
10596;SDS011;5346;48.766;8.674;2022-08-26T15:32:47;5.85;;;4.88;;
10596;SDS011;5346;48.766;8.674;2022-08-26T15:35:21;6.72;;;5.00;;
10596;SDS011;5346;48.766;8.674;2022-08-26T15:37:49;8.38;;;5.45;;
10596;SDS011;5346;48.766;8.674;2022-08-26T15:40:18;7.07;;;6.38;;
10596;SDS011;5346;48.766;8.674;2022-08-26T15:42:53;8.65;;;6.63;;
10596;SDS011;5346;48.766;8.674;2022-08-26T15:45:42;7.28;;;6.60;;
10596;SDS011;5346;48.766;8.674;2022-08-26T15:48:17;7.80;;;6.60;;
10596;SDS011;5346;48.766;8.674;2022-08-26T15:50:53;9.40;;;6.60;;
10596;SDS011;5346;48.766;8.674;2022-08-26T15:53:34;8.02;;;6.82;;
10596;SDS011;5346;48.766;8.674;2022-08-26T15:56:01;13.38;;;7.35;;
10596;SDS011;5346;48.766;8.674;2022-08-26T15:58:30;10.45;;;7.68;;
10596;SDS011;5346;48.766;8.674;2022-08-26T16:01:06;12.30;;;7.18;;
10596;SDS011;5346;48.766;8.674;2022-08-26T16:03:34;8.75;;;7.85;;
10596;SDS011;5346;48.766;8.674;2022-08-26T16:06:02;9.18;;;7.72;;
10596;SDS011;5346;48.766;8.674;2022-08-26T16:08:37;10.52;;;7.35;;
10596;SDS011;5346;48.766;8.674;2022-08-26T16:11:04;11.82;;;7.03;;
10596;SDS011;5346;48.766;8.674;2022-08-26T16:13:32;8.38;;;7.00;;
10596;SDS011;5346;48.766;8.674;2022-08-26T16:16:06;9.90;;;7.18;;
10596;SDS011;5346;48.766;8.674;2022-08-26T16:18:35;9.60;;;7.30;;
10596;SDS011;5346;48.766;8.674;2022-08-26T16:21:03;6.90;;;6.13;;
10596;SDS011;5346;48.766;8.674;2022-08-26T16:23:39;7.28;;;6.57;;
10596;SDS011;5346;48.766;8.674;2022-08-26T16:26:18;9.23;;;6.60;;
10596;SDS011;5346;48.766;8.674;2022-08-26T16:28:54;9.88;;;6.68;;
10596;SDS011;5346;48.766;8.674;2022-08-26T16:31:26;6.78;;;6.07;;
10596;SDS011;5346;48.766;8.674;2022-08-26T16:33:55;8.02;;;6.72;;
10596;SDS011;5346;48.766;8.674;2022-08-26T16:36:30;8.68;;;6.38;;
10596;SDS011;5346;48.766;8.674;2022-08-26T16:38:58;7.53;;;6.70;;
10596;SDS011;5346;48.766;8.674;2022-08-26T16:41:28;8.43;;;7.00;;